Terminal Aerodrome Forecast
Issued by NWS

Home | Current Version | Previous Version | Text Only | Print | Product List | Glossary On
Versions: 1 2 3 4 5 6 7 8 9 10 11 12 13 14 15 16 17 18
949
FTUS43 KPAH 101720
TAFCGI
TAF
KCGI 101720Z 1018/1118 VRB05KT P6SM SCT060 BKN110
     FM102000 VRB05KT P6SM SCT050 OVC100
     FM102200 VRB05KT P6SM SCT025 OVC050
      TEMPO 1022/1102 4SM -SN BR OVC025
     FM110200 VRB06KT P6SM OVC030
     FM111500 04010KT P6SM SCT035=

USA.gov is the U.S. government's official web portal to all federal, state and local government web resources and services.